Fort Yukon, AK

12:39 AM AKST on January 24, 2017 (GMT -0900)
Arctic Village | | Change Station
Active Advisory: Winter Weather Advisory

Elev 2083 ft 68.12 °N, 145.58 °W | Updated 43 minutes ago

Overcast
Overcast
-27 °F
Feels Like -46 °F
N
7
Wind Variable Wind from WNW

Today
High -- | Low -- °F
--% Chance of Precip.
Yesterday
High -- | Low -- °F
Precip. -- in
Pressure 29.79 in
Visibility 10.0 miles
Clouds Mostly Cloudy 8000 ft
Windchill -46 °F
Dew Point -33 °F
Humidity 73%
Rainfall 0.00 in
Snow Depth Not available.
10:09 AM 3:37 PM
Waning Crescent, 13% visible
METAR PARC 240856Z AUTO 30006KT 10SM BKN080 M33/M36 A2945 RMK AO2 SLP086 T13281361 412941367 58013 FZRANO
Pressure 29.79 in
Visibility 10.0 miles
Clouds Mostly Cloudy 8000 ft
Windchill -46 °F
Dew Point -33 °F
Humidity 73%
Rainfall 0.00 in
Snow Depth Not available.
10:09 AM 3:37 PM
Waning Crescent, 13% visible
METAR PARC 240856Z AUTO 30006KT 10SM BKN080 M33/M36 A2945 RMK AO2 SLP086 T13281361 412941367 58013 FZRANO

Get Your Daily Forecast Email!

Thanks for signing up!

Be on the lookout for a verification email in your inbox.

You'll start receiving the daily forecast at 8 AM.

×

10-Day Weather Forecast

Almanac

Astronomy

Jan. 24, 2017 Rise Set
Actual Time
Civil Twilight
Nautical Twilight
Astronomical Twilight
Moon
Length of Visible Light
Length of Day
Tomorrow will be .
, % of the Moon is Illuminated

Today's Extremes

State Highs State Lows

Community

WunderPhotos

Upload Photos

1,962,540 photos uploaded!

WunderBlog® & News

Nearby

Air Quality

  Air Quality AQ Index Pollutant
Not available.

Snow Depth

Station Depth Elevation

Earthquake Activity

City Distance Mag. Time & Date
Minimum magnitude displayed is 2.5.

Coastal Water Temperatures

Place Temperature

Stations

Nearby Weather Stations

Station Location Temp. Windchill Dew Point Humidity Wind Precip. Elev Updated Type
                   

Watches & Warnings

Winter Weather Advisory
Issued: 8:37 PM AKST Jan. 23, 2017 – National Weather Service

... Winter Weather Advisory now in effect until 6 PM akst
Tuesday...

* location... on summits along the Dalton Highway.

* Winds... northeast gusting to 40 mph.

* Blowing snow... reducing visibility to 1/2 mile or less at
times.

* Timing... conditions will improve early Tuesday evening as winds
diminish.

* Impacts... visibility will be greatly reduced and snow will
accumulate into drifts. Whiteout conditions may occur. Travel
and outdoor activities will be difficult.

Precautionary/preparedness actions...

A Winter Weather Advisory means that one or more winter weather
hazards are expected to cause travel difficulties.